Time;durP1;ratioP1;P1;durP2;ratioP2;P2;SDS_P1;SDS_P2;PMS_P1;PMS_P2;Temp;Humidity;BMP_temperature;BMP_pressure;BME280_temperature;BME280_humidity;BME280_pressure;Samples;Min_cycle;Max_cycle;Signal;HPM_P1;HPM_P2
2022/05/14 00:00:12;;;;;;;6.28;5.00;;;;;;;;;;5001714;28;20080;-84
2022/05/14 00:02:37;;;;;;;5.22;4.47;;;;;;;;;;5021563;28;20538;-83
2022/05/14 00:05:05;;;;;;;5.68;4.43;;;;;;;;;;5005756;28;20107;-85
2022/05/14 00:07:30;;;;;;;6.20;4.35;;;;;;;;;;5003455;28;20033;-84
2022/05/14 00:09:56;;;;;;;5.47;4.63;;;;;;;;;;5003397;28;20091;-83
2022/05/14 00:15:06;;;;;;;5.18;4.32;;;;;;;;;;5026015;28;20089;-85
2022/05/14 00:17:31;;;;;;;6.43;5.22;;;;;;;;;;5003974;28;20057;-83
2022/05/14 00:19:57;;;;;;;7.47;4.95;;;;;;;;;;5003472;28;20018;-82
2022/05/14 00:22:22;;;;;;;6.57;5.07;;;;;;;;;;5020359;28;20030;-84
2022/05/14 00:24:49;;;;;;;6.43;5.70;;;;;;;;;;5020017;28;20026;-83
2022/05/14 00:27:15;;;;;;;5.93;4.80;;;;;;;;;;5005546;28;20466;-83
2022/05/14 00:29:41;;;;;;;6.53;5.10;;;;;;;;;;5008179;28;20047;-84
2022/05/14 00:32:07;;;;;;;5.90;4.97;;;;;;;;;;5021446;28;20018;-83
2022/05/14 00:34:32;;;;;;;6.28;5.22;;;;;;;;;;5015463;28;20033;-82
2022/05/14 00:37:00;;;;;;;5.85;5.25;;;;;;;;;;5025890;28;20025;-83
2022/05/14 00:39:26;;;;;;;8.68;5.38;;;;;;;;;;5024755;28;20029;-82
2022/05/14 00:41:51;;;;;;;6.25;5.07;;;;;;;;;;4999309;28;20417;-84
2022/05/14 00:44:17;;;;;;;6.70;6.00;;;;;;;;;;5020855;28;20052;-82
2022/05/14 00:47:02;;;;;;;5.72;5.03;;;;;;;;;;5015591;28;20021;-81
2022/05/14 00:49:30;;;;;;;7.30;5.22;;;;;;;;;;4996728;28;20049;-82
2022/05/14 00:51:56;;;;;;;6.07;5.18;;;;;;;;;;5020143;28;20025;-83
2022/05/14 00:54:27;;;;;;;6.53;5.78;;;;;;;;;;5029761;28;20541;-81
2022/05/14 00:56:58;;;;;;;6.47;5.80;;;;;;;;;;5016520;28;20501;-82
2022/05/14 00:59:26;;;;;;;6.90;5.53;;;;;;;;;;5024074;28;20692;-84
2022/05/14 01:01:52;;;;;;;6.93;4.75;;;;;;;;;;5025531;28;20029;-85
2022/05/14 01:04:19;;;;;;;5.45;4.95;;;;;;;;;;5029440;28;20022;-82
2022/05/14 01:06:51;;;;;;;5.70;5.10;;;;;;;;;;5026816;28;20033;-83
2022/05/14 01:09:17;;;;;;;6.72;5.22;;;;;;;;;;5008750;28;20523;-84
2022/05/14 01:11:43;;;;;;;8.45;5.38;;;;;;;;;;5024223;28;20026;-84
2022/05/14 01:14:09;;;;;;;5.57;5.07;;;;;;;;;;5022481;28;20032;-83
2022/05/14 01:16:35;;;;;;;8.23;5.85;;;;;;;;;;5023742;28;20549;-83
2022/05/14 01:19:01;;;;;;;6.90;6.03;;;;;;;;;;5025395;28;20033;-83
2022/05/14 01:21:38;;;;;;;9.00;5.93;;;;;;;;;;5024076;28;20089;-83
2022/05/14 01:26:59;;;;;;;12.35;5.53;;;;;;;;;;5027456;28;20036;-85
2022/05/14 01:29:25;;;;;;;9.80;5.28;;;;;;;;;;5023321;28;20029;-82
2022/05/14 01:31:53;;;;;;;5.95;5.20;;;;;;;;;;5029243;28;20449;-83
2022/05/14 01:34:25;;;;;;;5.97;5.38;;;;;;;;;;5006471;28;20026;-84
2022/05/14 01:36:51;;;;;;;10.38;5.38;;;;;;;;;;5002057;28;20096;-84
2022/05/14 01:39:17;;;;;;;7.43;5.78;;;;;;;;;;5025385;28;20030;-84
2022/05/14 01:41:43;;;;;;;8.13;5.72;;;;;;;;;;5022792;28;20029;-83
2022/05/14 01:44:09;;;;;;;6.43;5.47;;;;;;;;;;5028227;28;20465;-82
2022/05/14 01:46:34;;;;;;;6.93;5.60;;;;;;;;;;5002601;28;20037;-84
2022/05/14 01:49:00;;;;;;;7.95;5.28;;;;;;;;;;5024540;28;20040;-83
2022/05/14 01:51:26;;;;;;;6.93;5.07;;;;;;;;;;5025334;28;20079;-84
2022/05/14 01:53:52;;;;;;;8.20;5.60;;;;;;;;;;5025805;28;20104;-84
2022/05/14 01:56:18;;;;;;;8.18;6.15;;;;;;;;;;5025785;28;20033;-84
2022/05/14 01:58:43;;;;;;;9.98;6.60;;;;;;;;;;5002438;28;20033;-83
2022/05/14 02:01:20;;;;;;;6.80;5.72;;;;;;;;;;5006444;28;20378;-84
2022/05/14 02:03:49;;;;;;;7.97;6.25;;;;;;;;;;5025359;28;20053;-83
2022/05/14 02:06:15;;;;;;;7.13;5.88;;;;;;;;;;5022531;28;20466;-83
2022/05/14 02:08:41;;;;;;;6.25;5.57;;;;;;;;;;5025248;28;20025;-83
2022/05/14 02:11:08;;;;;;;8.02;5.85;;;;;;;;;;5021368;28;20040;-84
2022/05/14 02:13:35;;;;;;;7.50;5.80;;;;;;;;;;5005224;28;20469;-84
2022/05/14 02:16:01;;;;;;;7.78;5.63;;;;;;;;;;5002848;28;20504;-83
2022/05/14 02:18:27;;;;;;;9.90;6.13;;;;;;;;;;5031070;28;20026;-84
2022/05/14 02:20:52;;;;;;;6.30;5.57;;;;;;;;;;5018844;28;20101;-83
2022/05/14 02:23:18;;;;;;;7.65;5.70;;;;;;;;;;5020288;28;20108;-83
2022/05/14 02:25:44;;;;;;;8.85;6.68;;;;;;;;;;5023065;28;20033;-82
2022/05/14 02:28:10;;;;;;;7.45;5.97;;;;;;;;;;5020297;28;20037;-84
2022/05/14 02:30:36;;;;;;;6.18;5.55;;;;;;;;;;5021731;28;20112;-85
2022/05/14 02:33:01;;;;;;;7.20;5.80;;;;;;;;;;5022380;28;20061;-83
2022/05/14 02:35:27;;;;;;;9.75;5.60;;;;;;;;;;5023066;28;20064;-83
2022/05/14 02:37:53;;;;;;;8.93;6.45;;;;;;;;;;5021698;28;20092;-83
2022/05/14 02:40:18;;;;;;;9.93;6.63;;;;;;;;;;5023701;28;20438;-81
2022/05/14 02:42:44;;;;;;;6.90;6.10;;;;;;;;;;5020228;28;20101;-82
2022/05/14 02:45:10;;;;;;;6.95;5.88;;;;;;;;;;5025186;28;20555;-84
2022/05/14 02:47:36;;;;;;;8.07;6.15;;;;;;;;;;5004058;28;20470;-83
2022/05/14 02:50:03;;;;;;;9.23;5.72;;;;;;;;;;5022956;28;20060;-83
2022/05/14 02:52:28;;;;;;;8.20;6.40;;;;;;;;;;5023205;28;20030;-83
2022/05/14 02:54:54;;;;;;;7.93;5.95;;;;;;;;;;5014189;28;20084;-83
2022/05/14 02:57:19;;;;;;;10.60;6.57;;;;;;;;;;5028449;28;20038;-84
2022/05/14 02:59:45;;;;;;;9.98;6.30;;;;;;;;;;5003902;28;20065;-84
2022/05/14 03:02:10;;;;;;;7.47;5.85;;;;;;;;;;5020985;28;20083;-83
2022/05/14 03:04:38;;;;;;;7.45;6.30;;;;;;;;;;5022829;28;20114;-82
2022/05/14 03:07:06;;;;;;;7.90;6.40;;;;;;;;;;5025119;28;20068;-82
2022/05/14 03:09:33;;;;;;;6.97;5.65;;;;;;;;;;5021947;28;20028;-82
2022/05/14 03:11:58;;;;;;;6.38;5.43;;;;;;;;;;5023875;28;20037;-84
2022/05/14 03:14:24;;;;;;;7.13;5.68;;;;;;;;;;5020657;28;20029;-84
2022/05/14 03:16:49;;;;;;;7.47;6.00;;;;;;;;;;5023742;28;20036;-83
2022/05/14 03:19:15;;;;;;;6.93;5.20;;;;;;;;;;5025018;28;20052;-82
2022/05/14 03:21:41;;;;;;;7.03;6.00;;;;;;;;;;5023666;28;20751;-84
2022/05/14 03:24:08;;;;;;;7.05;5.88;;;;;;;;;;5004891;28;20047;-83
2022/05/14 03:26:34;;;;;;;9.77;5.60;;;;;;;;;;5024136;28;20355;-83
2022/05/14 03:28:59;;;;;;;7.40;5.78;;;;;;;;;;5024714;28;20060;-84
2022/05/14 03:31:25;;;;;;;6.80;5.30;;;;;;;;;;5016712;28;20026;-83
2022/05/14 03:33:50;;;;;;;6.28;5.38;;;;;;;;;;5017867;28;20087;-84
2022/05/14 03:36:16;;;;;;;7.97;5.57;;;;;;;;;;5000398;28;20049;-84
2022/05/14 03:38:42;;;;;;;8.48;5.50;;;;;;;;;;5020026;28;20501;-82
2022/05/14 03:41:07;;;;;;;6.80;5.47;;;;;;;;;;5023179;28;20052;-82
2022/05/14 03:43:33;;;;;;;7.22;4.75;;;;;;;;;;5022888;28;20048;-83
2022/05/14 03:45:59;;;;;;;7.30;5.60;;;;;;;;;;5022858;28;20029;-83
2022/05/14 03:48:25;;;;;;;8.48;5.30;;;;;;;;;;5025181;28;20029;-83
2022/05/14 03:50:52;;;;;;;6.10;5.28;;;;;;;;;;4999674;28;20030;-83
2022/05/14 03:53:18;;;;;;;7.75;5.97;;;;;;;;;;5018290;28;20061;-84
2022/05/14 03:55:44;;;;;;;10.52;6.30;;;;;;;;;;5000589;28;20034;-83
2022/05/14 03:58:11;;;;;;;8.57;5.95;;;;;;;;;;5018574;28;20091;-83
2022/05/14 04:00:36;;;;;;;11.23;5.40;;;;;;;;;;5023754;28;20037;-83
2022/05/14 04:03:03;;;;;;;7.60;5.65;;;;;;;;;;5004088;28;20040;-85
2022/05/14 04:05:29;;;;;;;8.02;6.15;;;;;;;;;;5021607;28;20037;-84
2022/05/14 04:07:55;;;;;;;5.90;5.28;;;;;;;;;;5022813;28;20034;-82
2022/05/14 04:10:20;;;;;;;7.32;5.60;;;;;;;;;;5022869;28;20047;-84
2022/05/14 04:12:46;;;;;;;7.90;5.82;;;;;;;;;;5022305;28;20026;-85
2022/05/14 04:15:14;;;;;;;6.50;5.38;;;;;;;;;;5021959;28;20057;-86
2022/05/14 04:17:39;;;;;;;9.95;6.25;;;;;;;;;;5025042;28;20037;-83
2022/05/14 04:20:06;;;;;;;8.15;5.60;;;;;;;;;;5024275;28;20029;-87
2022/05/14 04:22:32;;;;;;;8.15;6.00;;;;;;;;;;5020490;28;20030;-84
2022/05/14 04:24:58;;;;;;;7.55;5.90;;;;;;;;;;5001683;28;20030;-86
2022/05/14 04:27:23;;;;;;;8.48;5.93;;;;;;;;;;5005402;28;20025;-86
2022/05/14 04:29:49;;;;;;;8.13;6.60;;;;;;;;;;5019252;28;20390;-86
2022/05/14 04:32:14;;;;;;;8.02;6.90;;;;;;;;;;5020352;28;20036;-84
2022/05/14 04:34:40;;;;;;;10.75;6.90;;;;;;;;;;5006226;28;20040;-85
2022/05/14 04:37:06;;;;;;;9.82;7.32;;;;;;;;;;5026149;28;20036;-83
2022/05/14 04:39:31;;;;;;;8.23;7.13;;;;;;;;;;5023685;28;20075;-86
2022/05/14 04:42:05;;;;;;;8.10;6.68;;;;;;;;;;5023146;28;20029;-84
2022/05/14 04:44:35;;;;;;;11.57;7.43;;;;;;;;;;5022131;28;20046;-85
2022/05/14 04:47:01;;;;;;;8.98;7.90;;;;;;;;;;5018915;28;20041;-83
2022/05/14 04:49:30;;;;;;;15.30;7.93;;;;;;;;;;5023550;28;20036;-83
2022/05/14 04:51:56;;;;;;;12.73;8.40;;;;;;;;;;5014371;28;20061;-82
2022/05/14 04:54:21;;;;;;;14.93;9.15;;;;;;;;;;5020185;28;20084;-84
2022/05/14 04:56:47;;;;;;;10.73;8.07;;;;;;;;;;5019001;28;20029;-81
2022/05/14 04:59:13;;;;;;;10.05;7.97;;;;;;;;;;5021065;28;20036;-84
2022/05/14 05:03:16;;;;;;;11.65;7.53;;;;;;;;;;5020699;28;20087;-83
2022/05/14 05:04:24;;;;;;;9.05;7.18;;;;;;;;;;5020825;28;20134;-83
2022/05/14 05:06:50;;;;;;;10.25;7.15;;;;;;;;;;5022170;28;20160;-84
2022/05/14 05:09:15;;;;;;;11.20;7.88;;;;;;;;;;5018162;28;20022;-84
2022/05/14 05:11:41;;;;;;;9.32;7.75;;;;;;;;;;5021933;28;20099;-86
2022/05/14 05:14:06;;;;;;;9.98;7.47;;;;;;;;;;5019281;28;20056;-84
2022/05/14 05:16:32;;;;;;;11.60;8.07;;;;;;;;;;5023663;28;20123;-84
2022/05/14 05:18:57;;;;;;;11.75;9.25;;;;;;;;;;5015715;28;20021;-86
2022/05/14 05:21:22;;;;;;;12.13;9.20;;;;;;;;;;5018038;28;20026;-85
2022/05/14 05:23:48;;;;;;;12.48;8.73;;;;;;;;;;5004400;28;20116;-81
2022/05/14 05:26:14;;;;;;;10.52;8.50;;;;;;;;;;5021282;28;20026;-86
2022/05/14 05:28:40;;;;;;;12.10;8.82;;;;;;;;;;5008309;28;20041;-86
2022/05/14 05:31:07;;;;;;;12.48;9.55;;;;;;;;;;5002213;28;20402;-83
2022/05/14 05:33:32;;;;;;;12.02;9.90;;;;;;;;;;5021391;28;20033;-87
2022/05/14 05:35:57;;;;;;;17.02;10.25;;;;;;;;;;5019908;28;20045;-89
2022/05/14 05:38:23;;;;;;;16.05;10.43;;;;;;;;;;5022591;28;20401;-86
2022/05/14 05:40:51;;;;;;;17.45;10.40;;;;;;;;;;5010172;28;20022;-87
2022/05/14 05:43:16;;;;;;;15.43;10.90;;;;;;;;;;5008922;28;20052;-85
2022/05/14 05:45:45;;;;;;;14.00;10.23;;;;;;;;;;5028531;28;20783;-86
2022/05/14 05:48:11;;;;;;;20.08;12.18;;;;;;;;;;5026881;28;20056;-85
2022/05/14 05:50:38;;;;;;;12.00;10.23;;;;;;;;;;5026148;28;20033;-86
2022/05/14 05:53:04;;;;;;;22.30;11.68;;;;;;;;;;5027746;28;20044;-85
2022/05/14 05:58:17;;;;;;;12.40;10.07;;;;;;;;;;5027032;28;20039;-84
2022/05/14 06:00:43;;;;;;;18.17;11.10;;;;;;;;;;5022376;28;20028;-86
2022/05/14 06:03:08;;;;;;;13.07;10.45;;;;;;;;;;5004728;28;20471;-86
2022/05/14 06:05:34;;;;;;;15.68;11.20;;;;;;;;;;5023070;28;20105;-87
2022/05/14 06:07:59;;;;;;;19.50;11.57;;;;;;;;;;5023523;28;20105;-87
2022/05/14 06:10:25;;;;;;;15.65;11.48;;;;;;;;;;5006338;28;20065;-88
2022/05/14 06:12:51;;;;;;;12.75;11.13;;;;;;;;;;5009356;28;20044;-86
2022/05/14 06:15:18;;;;;;;17.33;11.57;;;;;;;;;;5007822;28;20703;-87
2022/05/14 06:17:44;;;;;;;13.90;10.70;;;;;;;;;;5003485;28;20426;-85
2022/05/14 06:20:12;;;;;;;18.35;10.38;;;;;;;;;;5026170;28;20037;-86
2022/05/14 06:22:38;;;;;;;12.73;10.25;;;;;;;;;;5022891;28;20025;-84
2022/05/14 06:25:05;;;;;;;11.82;10.38;;;;;;;;;;5019618;28;20149;-86
2022/05/14 06:27:31;;;;;;;16.58;10.82;;;;;;;;;;5012205;28;20026;-83
2022/05/14 06:29:56;;;;;;;13.15;10.65;;;;;;;;;;5019316;28;20025;-83
2022/05/14 06:32:22;;;;;;;15.27;10.63;;;;;;;;;;5003215;28;20116;-84
2022/05/14 06:34:48;;;;;;;18.60;10.55;;;;;;;;;;5021228;28;20033;-83
2022/05/14 06:37:13;;;;;;;14.30;9.88;;;;;;;;;;5024078;28;20025;-81
2022/05/14 06:39:40;;;;;;;15.13;11.27;;;;;;;;;;5028659;28;20021;-85
2022/05/14 06:42:05;;;;;;;12.35;10.07;;;;;;;;;;5022646;28;20163;-80
2022/05/14 06:44:31;;;;;;;17.10;9.45;;;;;;;;;;5021700;28;20058;-80
2022/05/14 06:46:57;;;;;;;14.70;9.30;;;;;;;;;;5028758;28;20025;-79
2022/05/14 06:49:23;;;;;;;11.77;9.13;;;;;;;;;;5019173;28;20486;-81
2022/05/14 06:51:51;;;;;;;13.63;8.57;;;;;;;;;;5023357;28;20045;-81
2022/05/14 06:54:17;;;;;;;9.63;8.73;;;;;;;;;;5022328;28;20047;-82
2022/05/14 06:56:44;;;;;;;9.75;8.80;;;;;;;;;;5023108;28;20029;-80
2022/05/14 06:59:11;;;;;;;13.63;8.30;;;;;;;;;;5024293;28;20386;-81
2022/05/14 07:01:39;;;;;;;11.30;8.82;;;;;;;;;;5018962;28;20029;-80
2022/05/14 07:06:51;;;;;;;11.32;8.85;;;;;;;;;;5025490;28;20095;-80
2022/05/14 07:09:22;;;;;;;11.55;8.70;;;;;;;;;;5026687;28;20459;-81
2022/05/14 07:11:50;;;;;;;16.10;9.50;;;;;;;;;;5022675;28;20572;-81
2022/05/14 07:14:17;;;;;;;9.43;8.15;;;;;;;;;;5008123;28;20033;-83
2022/05/14 07:16:45;;;;;;;12.35;9.70;;;;;;;;;;5018277;28;20492;-80
2022/05/14 07:19:11;;;;;;;14.48;10.30;;;;;;;;;;5026060;28;20063;-80
2022/05/14 07:21:39;;;;;;;10.95;9.30;;;;;;;;;;5023045;28;20120;-79
2022/05/14 07:24:07;;;;;;;13.07;9.02;;;;;;;;;;5024338;28;20029;-80
2022/05/14 07:26:39;;;;;;;11.77;8.95;;;;;;;;;;5018809;28;20040;-82
2022/05/14 07:29:07;;;;;;;10.13;9.02;;;;;;;;;;5026885;28;20524;-84
2022/05/14 07:31:33;;;;;;;14.52;9.05;;;;;;;;;;5017979;28;20528;-82
2022/05/14 07:33:58;;;;;;;10.75;9.13;;;;;;;;;;5019408;28;20123;-83
2022/05/14 07:36:25;;;;;;;10.32;8.18;;;;;;;;;;5011221;28;20052;-85
2022/05/14 07:38:54;;;;;;;10.75;9.20;;;;;;;;;;4999962;28;20057;-84
2022/05/14 07:41:20;;;;;;;12.67;9.73;;;;;;;;;;5025361;28;20075;-84
2022/05/14 07:43:50;;;;;;;10.88;8.40;;;;;;;;;;5021261;28;20455;-83
2022/05/14 07:46:18;;;;;;;;;;;;;;;;;;5024125;28;20502;-81
2022/05/14 07:48:44;;;;;;;9.52;8.27;;;;;;;;;;5017822;28;19936;-84
2022/05/14 07:51:11;;;;;;;12.40;8.13;;;;;;;;;;5019371;28;20446;-86
2022/05/14 07:53:37;;;;;;;10.88;8.02;;;;;;;;;;5022599;28;20477;-85
2022/05/14 07:56:04;;;;;;;12.18;8.63;;;;;;;;;;5025112;28;20026;-81
2022/05/14 07:58:30;;;;;;;10.52;9.05;;;;;;;;;;5025625;28;20505;-82
2022/05/14 08:00:57;;;;;;;12.20;9.55;;;;;;;;;;5009711;28;20032;-85
2022/05/14 08:03:24;;;;;;;11.50;8.70;;;;;;;;;;5024820;28;20036;-86
2022/05/14 08:05:56;;;;;;;11.05;8.32;;;;;;;;;;5009237;28;20030;-87
2022/05/14 08:08:22;;;;;;;11.88;9.05;;;;;;;;;;5004649;28;20043;-82
2022/05/14 08:10:49;;;;;;;10.75;8.70;;;;;;;;;;5015809;28;20107;-85
2022/05/14 08:13:17;;;;;;;10.68;8.98;;;;;;;;;;5020613;28;20018;-84
2022/05/14 08:15:44;;;;;;;10.30;9.13;;;;;;;;;;5022152;28;20018;-83
2022/05/14 08:18:10;;;;;;;10.05;8.65;;;;;;;;;;5022407;28;20128;-86
2022/05/14 08:20:36;;;;;;;10.88;8.27;;;;;;;;;;5002445;28;20116;-87
2022/05/14 08:25:48;;;;;;;10.63;9.18;;;;;;;;;;5017848;28;20087;-84
2022/05/14 08:28:14;;;;;;;17.23;8.75;;;;;;;;;;5027154;28;20385;-86
2022/05/14 08:30:39;;;;;;;14.90;9.45;;;;;;;;;;5022819;28;20046;-89
2022/05/14 08:33:07;;;;;;;11.32;9.88;;;;;;;;;;5016313;28;20033;-85
2022/05/14 08:35:34;;;;;;;10.75;8.82;;;;;;;;;;5022357;28;20075;-83
2022/05/14 08:37:59;;;;;;;8.88;7.95;;;;;;;;;;5003571;28;20035;-85
2022/05/14 08:40:30;;;;;;;10.32;8.13;;;;;;;;;;5022608;28;20115;-85
2022/05/14 08:43:01;;;;;;;10.05;9.00;;;;;;;;;;5021282;28;20025;-83
2022/05/14 08:45:32;;;;;;;10.98;7.93;;;;;;;;;;5019403;28;20029;-87
2022/05/14 08:48:05;;;;;;;11.85;8.85;;;;;;;;;;5022302;28;20029;-85
2022/05/14 08:50:34;;;;;;;10.77;8.98;;;;;;;;;;5016650;28;20476;-84
2022/05/14 08:53:00;;;;;;;9.57;8.50;;;;;;;;;;5020874;28;20026;-84
2022/05/14 08:55:40;;;;;;;10.77;8.07;;;;;;;;;;5021943;28;20112;-85
2022/05/14 08:58:08;;;;;;;11.75;8.27;;;;;;;;;;5025394;28;20025;-85
2022/05/14 09:00:34;;;;;;;15.93;8.93;;;;;;;;;;5022870;28;20469;-84
2022/05/14 09:02:59;;;;;;;12.13;8.15;;;;;;;;;;5025012;28;20036;-85
2022/05/14 09:05:32;;;;;;;9.52;8.23;;;;;;;;;;5019281;28;20397;-83
2022/05/14 09:08:01;;;;;;;11.10;8.10;;;;;;;;;;5020932;28;20048;-84
2022/05/14 09:10:33;;;;;;;9.10;8.13;;;;;;;;;;5023013;28;20037;-86
2022/05/14 09:13:18;;;;;;;13.18;8.95;;;;;;;;;;5024224;28;20030;-87
2022/05/14 09:15:55;;;;;;;9.75;8.65;;;;;;;;;;5029400;28;20083;-86
2022/05/14 09:18:32;;;;;;;10.63;9.07;;;;;;;;;;5024023;28;20021;-82
2022/05/14 09:21:01;;;;;;;13.25;8.75;;;;;;;;;;5023072;28;20022;-85
2022/05/14 09:23:46;;;;;;;10.82;8.65;;;;;;;;;;5024569;28;20472;-86
2022/05/14 09:26:20;;;;;;;9.10;7.82;;;;;;;;;;5024412;28;20036;-84
2022/05/14 09:28:49;;;;;;;10.57;7.45;;;;;;;;;;5024385;28;20044;-85
2022/05/14 09:31:32;;;;;;;12.23;8.63;;;;;;;;;;5027898;28;20025;-84
2022/05/14 09:34:13;;;;;;;10.85;7.80;;;;;;;;;;5019317;28;20037;-84
2022/05/14 09:36:41;;;;;;;8.75;7.85;;;;;;;;;;5026339;28;20029;-83
2022/05/14 09:39:11;;;;;;;14.65;8.23;;;;;;;;;;5023413;28;20021;-84
2022/05/14 09:41:42;;;;;;;9.70;7.93;;;;;;;;;;5023541;28;20025;-88
2022/05/14 09:44:15;;;;;;;9.48;8.50;;;;;;;;;;5024398;28;20049;-88
2022/05/14 09:46:40;;;;;;;10.32;8.27;;;;;;;;;;5002046;28;20037;-84
2022/05/14 09:49:08;;;;;;;10.25;7.72;;;;;;;;;;5028215;28;20021;-85
2022/05/14 09:51:47;;;;;;;8.80;7.75;;;;;;;;;;5025358;28;20461;-85
2022/05/14 09:54:21;;;;;;;12.43;8.43;;;;;;;;;;5027417;28;20021;-83
2022/05/14 09:57:24;;;;;;;35.53;14.15;;;;;;;;;;5022813;28;20051;-86
2022/05/14 10:00:07;;;;;;;20.08;14.10;;;;;;;;;;5021827;28;20409;-83
2022/05/14 10:02:55;;;;;;;16.05;13.32;;;;;;;;;;5026519;28;20125;-86
2022/05/14 10:05:39;;;;;;;21.48;15.68;;;;;;;;;;5007234;28;20080;-88
2022/05/14 10:08:30;;;;;;;21.90;17.60;;;;;;;;;;5004079;28;20576;-88
2022/05/14 10:11:18;;;;;;;19.40;15.73;;;;;;;;;;5009135;28;20109;-91
2022/05/14 10:13:57;;;;;;;17.00;14.45;;;;;;;;;;5006149;28;20037;-88
2022/05/14 10:16:40;;;;;;;20.70;15.93;;;;;;;;;;5020347;28;20497;-90
2022/05/14 10:19:31;;;;;;;22.27;18.15;;;;;;;;;;5011965;28;20037;-90
2022/05/14 10:22:09;;;;;;;26.25;19.75;;;;;;;;;;5025510;28;20028;-88
2022/05/14 10:27:56;;;;;;;24.40;18.02;;;;;;;;;;5020560;28;20151;-89
2022/05/14 10:30:28;;;;;;;21.67;17.73;;;;;;;;;;5026276;28;20390;-91
2022/05/14 10:33:01;;;;;;;25.65;18.95;;;;;;;;;;5027617;28;20470;-90
2022/05/14 10:35:46;;;;;;;23.58;20.05;;;;;;;;;;5005320;28;20032;-88
2022/05/14 10:38:22;;;;;;;26.17;20.73;;;;;;;;;;5025424;28;20388;-91
2022/05/14 10:40:53;;;;;;;27.60;19.98;;;;;;;;;;5028809;28;20067;-92
2022/05/14 10:43:52;;;;;;;24.88;22.17;;;;;;;;;;5009899;28;20033;-91
2022/05/14 10:46:20;;;;;;;29.75;23.42;;;;;;;;;;5020401;28;20026;-87
2022/05/14 10:48:57;;;;;;;27.27;22.45;;;;;;;;;;5007140;28;20057;-89
2022/05/14 10:51:29;;;;;;;31.25;22.92;;;;;;;;;;5026991;28;20072;-87
2022/05/14 10:53:55;;;;;;;25.70;21.88;;;;;;;;;;5010032;28;20025;-89
2022/05/14 10:56:27;;;;;;;21.45;19.15;;;;;;;;;;5008300;28;20022;-86
2022/05/14 10:59:00;;;;;;;26.83;17.80;;;;;;;;;;5024694;28;20025;-87
2022/05/14 11:01:40;;;;;;;19.08;15.55;;;;;;;;;;5021737;28;20112;-86
2022/05/14 11:04:42;;;;;;;16.08;14.20;;;;;;;;;;5012756;28;20025;-89
2022/05/14 11:07:25;;;;;;;18.85;15.65;;;;;;;;;;5025590;28;20036;-90
2022/05/14 11:09:51;;;;;;;19.15;15.85;;;;;;;;;;5012634;28;20398;-88
2022/05/14 11:12:19;;;;;;;18.63;16.05;;;;;;;;;;5011079;28;20032;-89
2022/05/14 11:14:48;;;;;;;19.77;16.90;;;;;;;;;;5012917;28;20514;-87
2022/05/14 11:17:28;;;;;;;19.55;16.10;;;;;;;;;;5012321;28;20030;-87
2022/05/14 11:20:03;;;;;;;18.77;13.70;;;;;;;;;;5028856;28;20025;-86
2022/05/14 11:22:39;;;;;;;19.88;13.65;;;;;;;;;;5018059;28;20057;-86
2022/05/14 11:25:16;;;;;;;17.15;13.43;;;;;;;;;;5022064;28;20113;-81
2022/05/14 11:27:58;;;;;;;16.38;14.65;;;;;;;;;;5016888;28;20034;-81
2022/05/14 11:30:49;;;;;;;17.00;13.85;;;;;;;;;;5025302;28;20462;-84
2022/05/14 11:33:23;;;;;;;16.05;13.00;;;;;;;;;;5017076;28;20041;-82
2022/05/14 11:35:51;;;;;;;10.07;8.98;;;;;;;;;;5002844;28;20038;-82
2022/05/14 11:38:38;;;;;;;10.52;8.35;;;;;;;;;;4997208;28;20029;-81
2022/05/14 11:41:12;;;;;;;14.95;9.90;;;;;;;;;;5004615;28;20061;-81
2022/05/14 11:43:38;;;;;;;10.32;6.88;;;;;;;;;;5027424;28;20041;-83
2022/05/14 11:46:09;;;;;;;6.28;5.65;;;;;;;;;;5017982;28;20030;-82
2022/05/14 11:49:07;;;;;;;9.50;6.32;;;;;;;;;;5009165;28;20075;-85
2022/05/14 11:52:10;;;;;;;8.45;7.25;;;;;;;;;;5016117;28;20050;-81
2022/05/14 11:54:45;;;;;;;7.05;6.38;;;;;;;;;;5018781;28;20386;-83
2022/05/14 11:57:34;;;;;;;6.38;5.53;;;;;;;;;;5005387;28;20025;-81
2022/05/14 12:00:06;;;;;;;7.68;5.60;;;;;;;;;;5018197;28;20048;-81
2022/05/14 12:02:47;;;;;;;6.85;5.38;;;;;;;;;;5022711;28;20029;-81
2022/05/14 12:05:20;;;;;;;6.07;5.03;;;;;;;;;;5018629;28;20061;-82
2022/05/14 12:08:22;;;;;;;7.35;5.55;;;;;;;;;;5026819;28;20108;-80
2022/05/14 12:11:02;;;;;;;8.80;5.15;;;;;;;;;;4939683;28;20492;-84
2022/05/14 12:13:37;;;;;;;16.45;5.40;;;;;;;;;;5024358;28;20029;-82
2022/05/14 12:16:02;;;;;;;5.82;4.88;;;;;;;;;;5016679;28;20398;-81
2022/05/14 12:18:29;;;;;;;7.45;5.72;;;;;;;;;;5019212;28;20029;-81
2022/05/14 12:20:55;;;;;;;6.93;5.65;;;;;;;;;;5021340;28;20101;-82
2022/05/14 12:23:32;;;;;;;7.00;5.53;;;;;;;;;;5017720;28;20037;-83
2022/05/14 12:25:58;;;;;;;7.90;5.60;;;;;;;;;;5017034;28;20034;-81
2022/05/14 12:28:28;;;;;;;6.43;5.75;;;;;;;;;;5025969;28;20022;-82
2022/05/14 12:33:40;;;;;;;7.93;6.38;;;;;;;;;;5020440;28;20330;-82
2022/05/14 12:36:06;;;;;;;15.52;7.20;;;;;;;;;;5017484;28;20049;-83
2022/05/14 12:38:35;;;;;;;10.05;5.45;;;;;;;;;;5004771;28;20041;-84
2022/05/14 12:41:03;;;;;;;9.23;5.78;;;;;;;;;;5003567;28;20436;-82
2022/05/14 12:43:29;;;;;;;7.70;5.97;;;;;;;;;;5023052;28;20395;-82
2022/05/14 12:46:06;;;;;;;11.77;6.80;;;;;;;;;;5021346;28;20052;-83
2022/05/14 12:48:46;;;;;;;9.95;6.63;;;;;;;;;;5022718;28;20497;-83
2022/05/14 12:51:18;;;;;;;12.38;6.80;;;;;;;;;;5025999;28;20112;-83
2022/05/14 12:53:43;;;;;;;8.20;7.03;;;;;;;;;;5002616;28;20091;-82
2022/05/14 12:56:09;;;;;;;10.45;7.85;;;;;;;;;;5023328;28;20029;-82
2022/05/14 12:58:37;;;;;;;8.68;7.45;;;;;;;;;;5001784;28;20073;-83
2022/05/14 13:01:07;;;;;;;10.25;8.25;;;;;;;;;;5020667;28;20042;-81
2022/05/14 13:03:54;;;;;;;9.07;7.45;;;;;;;;;;5007786;28;20033;-81
2022/05/14 13:06:23;;;;;;;9.65;8.55;;;;;;;;;;5020806;28;20362;-82
2022/05/14 13:08:56;;;;;;;9.52;8.27;;;;;;;;;;5021095;28;20056;-83
2022/05/14 13:11:27;;;;;;;6.40;5.22;;;;;;;;;;5025405;28;20087;-83
2022/05/14 13:13:56;;;;;;;6.15;4.80;;;;;;;;;;5021439;28;20436;-85
2022/05/14 13:16:28;;;;;;;10.90;6.95;;;;;;;;;;5025505;28;20125;-88
2022/05/14 13:18:58;;;;;;;9.10;5.30;;;;;;;;;;5003608;28;20044;-87
2022/05/14 13:21:52;;;;;;;6.35;3.60;;;;;;;;;;5024602;28;20018;-88
2022/05/14 13:24:21;;;;;;;5.45;3.65;;;;;;;;;;5004125;28;20544;-88
2022/05/14 13:26:48;;;;;;;6.32;3.75;;;;;;;;;;5004287;28;20080;-87
2022/05/14 13:29:22;;;;;;;8.27;4.72;;;;;;;;;;5029335;28;20489;-87
2022/05/14 13:31:51;;;;;;;7.55;4.82;;;;;;;;;;5009065;28;20029;-86
2022/05/14 13:37:38;;;;;;;8.77;6.22;;;;;;;;;;5018720;28;20109;-88
2022/05/14 13:40:17;;;;;;;8.10;6.18;;;;;;;;;;5011266;28;20065;-85
2022/05/14 13:42:51;;;;;;;11.00;7.70;;;;;;;;;;5023960;28;20434;-87
2022/05/14 13:45:16;;;;;;;12.30;8.82;;;;;;;;;;5000979;28;20046;-88
2022/05/14 13:47:48;;;;;;;9.93;6.50;;;;;;;;;;5003062;28;20034;-87
2022/05/14 13:50:25;;;;;;;6.45;5.10;;;;;;;;;;5001902;28;20063;-87
2022/05/14 13:52:52;;;;;;;10.88;9.23;;;;;;;;;;5008289;28;20037;-87
2022/05/14 13:55:28;;;;;;;5.78;4.97;;;;;;;;;;5022028;28;20056;-88
2022/05/14 13:57:57;;;;;;;6.43;5.30;;;;;;;;;;5024997;28;20025;-87
2022/05/14 14:00:26;;;;;;;6.78;5.50;;;;;;;;;;5025441;28;20103;-88
2022/05/14 14:03:03;;;;;;;6.05;4.95;;;;;;;;;;5005547;28;20478;-87
2022/05/14 14:05:31;;;;;;;5.65;4.30;;;;;;;;;;5013370;28;20022;-84
2022/05/14 14:07:58;;;;;;;8.32;4.85;;;;;;;;;;5009080;28;20040;-86
2022/05/14 14:10:35;;;;;;;6.35;4.88;;;;;;;;;;5008378;28;20025;-85
2022/05/14 14:13:03;;;;;;;6.47;4.85;;;;;;;;;;5025104;28;20069;-87
2022/05/14 14:15:30;;;;;;;6.72;5.25;;;;;;;;;;5003192;28;20028;-85
2022/05/14 14:17:56;;;;;;;7.18;4.82;;;;;;;;;;5010484;28;20064;-86
2022/05/14 14:20:23;;;;;;;6.95;4.90;;;;;;;;;;5012369;28;20056;-86
2022/05/14 14:22:49;;;;;;;5.60;4.97;;;;;;;;;;5026173;28;20052;-88
2022/05/14 14:25:15;;;;;;;7.63;4.90;;;;;;;;;;5020611;28;20061;-86
2022/05/14 14:27:41;;;;;;;6.57;4.60;;;;;;;;;;5028472;28;20080;-87
2022/05/14 14:30:10;;;;;;;5.82;4.38;;;;;;;;;;5028646;28;20504;-87
2022/05/14 14:32:37;;;;;;;5.75;4.28;;;;;;;;;;5015255;28;20525;-87
2022/05/14 14:35:04;;;;;;;5.00;4.50;;;;;;;;;;5007793;28;20515;-86
2022/05/14 14:37:37;;;;;;;5.13;4.30;;;;;;;;;;5008571;28;20029;-87
2022/05/14 14:40:04;;;;;;;4.63;3.78;;;;;;;;;;5026203;28;20484;-87
2022/05/14 14:42:36;;;;;;;9.45;4.22;;;;;;;;;;5022000;28;20034;-86
2022/05/14 14:45:13;;;;;;;4.60;3.20;;;;;;;;;;5025746;28;20038;-87
2022/05/14 14:47:47;;;;;;;4.10;3.13;;;;;;;;;;5002887;28;20037;-88
2022/05/14 14:50:18;;;;;;;4.20;3.40;;;;;;;;;;5026251;28;20049;-86
2022/05/14 14:52:45;;;;;;;6.15;3.15;;;;;;;;;;5002249;28;20800;-85
2022/05/14 14:55:11;;;;;;;4.18;3.10;;;;;;;;;;5001634;28;20033;-85
2022/05/14 14:57:40;;;;;;;7.25;3.45;;;;;;;;;;5025119;28;20355;-85
2022/05/14 15:00:23;;;;;;;4.35;3.15;;;;;;;;;;5027071;28;20033;-86
2022/05/14 15:03:10;;;;;;;4.30;2.90;;;;;;;;;;5020339;28;20026;-86
2022/05/14 15:06:01;;;;;;;4.00;3.20;;;;;;;;;;5009802;28;20087;-85
2022/05/14 15:08:35;;;;;;;4.07;3.00;;;;;;;;;;5007081;28;20034;-87
2022/05/14 15:11:28;;;;;;;4.40;2.92;;;;;;;;;;5002765;28;20049;-85
2022/05/14 15:14:01;;;;;;;3.92;2.80;;;;;;;;;;5007341;28;20029;-89